• Join FlightAware (Why Join?)
  • Login
  • US Flag 
09:57PM EDT


 

Airport Tracker/Info


-or-


 

Live Flight TrackerFlight Track Log ✈ N988PG ✈ 26-Jul-2013 ✈ KMGW - KLEX

Flight Track Log - Related Links

Times and Time Zones

All times are in EDT time to prevent confusion due to time zone crossing. See the N988PG flight status page for this flight to view local times or setup timezone preferences in your user account.

Time Position Orientation Groundspeed Altitude Reporting Facility
EDT Latitude Longitude Course Direction KTS MPH feet Rate Location/Type
08:56AM 39.5919 -79.9706 247° West 242 278 4,500  Level Indianapolis Center
08:57AM 39.5678 -80.0525 249° West 225 259 6,500 2,580 Climbing Cleveland Center
08:58AM 39.5347 -80.1469 246° West 262 302 9,200 2,220 Climbing Cleveland Center
08:59AM 39.5039 -80.2442 248° West 284 327 11,000 1,740 Climbing Cleveland Center
09:00AM 39.4667 -80.3464 245° Southwest 302 348 12,700 1,620 Climbing Cleveland Center
09:01AM 39.4210 -80.5370 247° West  Level FlightAware Approximate
09:01AM 39.4333 -80.4514 248° West 314 361 14,300  Level Cleveland Center
09:02AM 39.3808 -80.5922 244° Southwest 322 371 16,300 1,380 Climbing Indianapolis Center
09:03AM 39.3439 -80.7000 246° West 327 376 17,800 1,320 Climbing Indianapolis Center
09:04AM 39.3067 -80.8092 246° West 331 381 19,100 1,320 Climbing Indianapolis Center
09:05AM 39.2689 -80.9203 246° West 336 387 20,600 1,260 Climbing Indianapolis Center
09:06AM 39.2228 -81.0539 246° West 341 392 21,800 1,020 Climbing Indianapolis Center
09:07AM 39.1828 -81.1672 246° West 347 399 22,800 960 Climbing Indianapolis Center
09:08AM 39.1436 -81.2819 246° West 351 404 23,800 900 Climbing Indianapolis Center
09:09AM 39.1036 -81.3972 246° West 354 407 24,700 720 Climbing Indianapolis Center
09:11AM 39.0622 -81.5147 246° West 361 415 25,300 480 Climbing Indianapolis Center
09:12AM 39.0203 -81.6328 245° Southwest 366 421 25,800 120 Climbing Indianapolis Center
09:13AM 38.9694 -81.7769 246° West 372 428 25,600 -540 Descending Indianapolis Center
09:14AM 38.9264 -81.9003 246° West 381 438 24,700 -780 Descending Indianapolis Center
09:15AM 38.8822 -82.0206 245° Southwest 376 433 24,000 -600 Descending Indianapolis Center
09:16AM 38.8372 -82.1461 245° Southwest 386 444 23,500 -540 Descending Indianapolis Center
09:17AM 38.7925 -82.2714 245° Southwest 388 447 22,900 -1,140 Descending Indianapolis Center
09:18AM 38.7386 -82.4181 245° Southwest 381 438 21,200 -1,500 Descending Indianapolis Center
09:19AM 38.6950 -82.5392 245° Southwest 376 433 19,800 -1,200 Descending Indianapolis Center
09:20AM 38.6511 -82.6558 244° Southwest 367 422 18,800 -1,020 Descending Indianapolis Center
09:21AM 38.6108 -82.7683 245° Southwest 346 398 17,700 -1,020 Descending Indianapolis Center
09:22AM 38.5706 -82.8775 245° Southwest 340 391 16,800 -960 Descending Indianapolis Center
09:23AM 38.5286 -82.9897 244° Southwest 349 402 15,800 -1,080 Descending Indianapolis Center
09:24AM 38.4806 -83.1211 245° Southwest 350 403 14,600 -960 Descending Indianapolis Center
09:25AM 38.4406 -83.2297 245° Southwest 340 391 13,900 -600 Descending Indianapolis Center
09:26AM 38.4003 -83.3344 244° Southwest 333 383 13,400 -540 Descending Indianapolis Center
09:27AM 38.3606 -83.4381 244° Southwest 328 377 12,900 -540 Descending Indianapolis Center
09:28AM 38.3214 -83.5450 245° Southwest 332 382 12,300 -540 Descending Indianapolis Center
09:29AM 38.2756 -83.6667 244° Southwest 328 377 11,800 -540 Descending Indianapolis Center
09:30AM 38.2353 -83.7706 244° Southwest 328 377 11,200 -420 Descending Indianapolis Center
09:31AM 38.1936 -83.8803 244° Southwest 328 377 11,000 -540 Descending Indianapolis Center
09:32AM 38.1731 -83.9767 255° West 306 352 10,200 -1,620 Descending Indianapolis Center
09:33AM 38.1647 -84.0733 264° West 284 327 7,700 -2,400 Descending Indianapolis Center
09:34AM 38.1569 -84.1633 264° West 270 311 5,300 -1,920 Descending Indianapolis Center
09:35AM 38.1456 -84.2639 262° West 255 293 3,800 -1,140 Descending Indianapolis Center
09:36AM 38.1397 -84.3419 265° West 240 276 3,000 -420 Descending Indianapolis Center
09:37AM 38.1322 -84.4156 263° West 226 260 3,000  Level Indianapolis Center
09:38AM 38.1278 -84.4769 265° West 204 235 3,000 -120 Level Indianapolis Center
09:39AM 38.1153 -84.5281 253° West 188 216 2,800 -480 Descending Indianapolis Center
09:40AM 38.0806 -84.5581 214° Southwest 149 171 2,100 -720 Descending Indianapolis Center
09:42AM 38.0489 -84.5917 220° Southwest 118 136 1,200 -720 Descending Indianapolis Center